sensor_id;sensor_type;location;lat;lon;timestamp;temperature;humidity
15386;DHT22;7791;47.246;9.648;2024-02-04T00:00:06;1.30;99.90
15386;DHT22;7791;47.246;9.648;2024-02-04T00:02:32;1.40;99.90
15386;DHT22;7791;47.246;9.648;2024-02-04T00:04:58;1.60;99.90
15386;DHT22;7791;47.246;9.648;2024-02-04T00:07:23;1.30;99.90
15386;DHT22;7791;47.246;9.648;2024-02-04T00:09:49;1.20;99.90
15386;DHT22;7791;47.246;9.648;2024-02-04T00:12:15;1.20;99.90
15386;DHT22;7791;47.246;9.648;2024-02-04T00:14:41;1.20;99.90
15386;DHT22;7791;47.246;9.648;2024-02-04T00:17:08;1.20;99.90
15386;DHT22;7791;47.246;9.648;2024-02-04T00:19:33;1.20;99.90
15386;DHT22;7791;47.246;9.648;2024-02-04T00:21:59;1.20;99.90
15386;DHT22;7791;47.246;9.648;2024-02-04T00:24:25;1.10;99.90
15386;DHT22;7791;47.246;9.648;2024-02-04T00:26:50;1.30;99.90
15386;DHT22;7791;47.246;9.648;2024-02-04T00:29:16;1.20;99.90
15386;DHT22;7791;47.246;9.648;2024-02-04T00:31:42;1.10;99.90
15386;DHT22;7791;47.246;9.648;2024-02-04T00:34:09;1.20;99.90
15386;DHT22;7791;47.246;9.648;2024-02-04T00:36:35;1.10;99.90
15386;DHT22;7791;47.246;9.648;2024-02-04T00:39:00;1.00;99.90
15386;DHT22;7791;47.246;9.648;2024-02-04T00:41:26;1.00;99.90
15386;DHT22;7791;47.246;9.648;2024-02-04T00:43:52;1.00;99.90
15386;DHT22;7791;47.246;9.648;2024-02-04T00:46:18;0.90;99.90
15386;DHT22;7791;47.246;9.648;2024-02-04T00:48:43;0.80;99.90
15386;DHT22;7791;47.246;9.648;2024-02-04T01:22:00;0.70;99.90
15386;DHT22;7791;47.246;9.648;2024-02-04T01:27:24;0.50;99.90
15386;DHT22;7791;47.246;9.648;2024-02-04T01:30:03;0.40;99.90
15386;DHT22;7791;47.246;9.648;2024-02-04T01:32:45;0.40;99.90
15386;DHT22;7791;47.246;9.648;2024-02-04T01:38:42;0.40;99.90
15386;DHT22;7791;47.246;9.648;2024-02-04T01:41:18;0.40;99.90
15386;DHT22;7791;47.246;9.648;2024-02-04T01:44:20;0.40;99.90
15386;DHT22;7791;47.246;9.648;2024-02-04T01:52:55;0.40;99.90
15386;DHT22;7791;47.246;9.648;2024-02-04T01:55:39;0.20;99.90
15386;DHT22;7791;47.246;9.648;2024-02-04T01:58:22;0.10;99.90
15386;DHT22;7791;47.246;9.648;2024-02-04T02:01:04;0.20;99.90
15386;DHT22;7791;47.246;9.648;2024-02-04T02:03:50;0.20;99.90
15386;DHT22;7791;47.246;9.648;2024-02-04T02:06:36;0.40;99.90
15386;DHT22;7791;47.246;9.648;2024-02-04T02:09:06;0.30;99.90
15386;DHT22;7791;47.246;9.648;2024-02-04T02:11:57;0.30;99.90
15386;DHT22;7791;47.246;9.648;2024-02-04T02:14:44;0.40;99.90
15386;DHT22;7791;47.246;9.648;2024-02-04T02:20:15;0.80;99.90
15386;DHT22;7791;47.246;9.648;2024-02-04T02:23:06;0.80;99.90
15386;DHT22;7791;47.246;9.648;2024-02-04T02:26:01;0.50;99.90
15386;DHT22;7791;47.246;9.648;2024-02-04T02:28:46;0.40;99.90
15386;DHT22;7791;47.246;9.648;2024-02-04T02:31:29;0.30;99.90
15386;DHT22;7791;47.246;9.648;2024-02-04T02:34:06;0.30;99.90
15386;DHT22;7791;47.246;9.648;2024-02-04T02:37:03;0.40;99.90
15386;DHT22;7791;47.246;9.648;2024-02-04T02:39:49;0.40;99.90
15386;DHT22;7791;47.246;9.648;2024-02-04T02:42:30;0.50;99.90
15386;DHT22;7791;47.246;9.648;2024-02-04T02:45:01;0.50;99.90
15386;DHT22;7791;47.246;9.648;2024-02-04T02:47:48;0.50;99.90
15386;DHT22;7791;47.246;9.648;2024-02-04T02:50:28;0.60;99.90
15386;DHT22;7791;47.246;9.648;2024-02-04T02:55:57;0.50;99.90
15386;DHT22;7791;47.246;9.648;2024-02-04T02:58:33;0.50;99.90
15386;DHT22;7791;47.246;9.648;2024-02-04T03:01:21;0.70;99.90
15386;DHT22;7791;47.246;9.648;2024-02-04T03:04:04;0.60;99.90
15386;DHT22;7791;47.246;9.648;2024-02-04T03:06:46;0.60;99.90
15386;DHT22;7791;47.246;9.648;2024-02-04T03:09:22;0.70;99.90
15386;DHT22;7791;47.246;9.648;2024-02-04T03:12:01;0.70;99.90
15386;DHT22;7791;47.246;9.648;2024-02-04T03:14:58;0.60;99.90
15386;DHT22;7791;47.246;9.648;2024-02-04T03:17:36;0.40;99.90
15386;DHT22;7791;47.246;9.648;2024-02-04T03:20:16;0.40;99.90
15386;DHT22;7791;47.246;9.648;2024-02-04T03:23:19;0.20;99.90
15386;DHT22;7791;47.246;9.648;2024-02-04T03:25:58;0.10;99.90
15386;DHT22;7791;47.246;9.648;2024-02-04T03:28:27;0.20;99.90
15386;DHT22;7791;47.246;9.648;2024-02-04T03:31:01;0.20;99.90
15386;DHT22;7791;47.246;9.648;2024-02-04T03:33:33;0.20;99.90
15386;DHT22;7791;47.246;9.648;2024-02-04T03:36:12;0.20;99.90
15386;DHT22;7791;47.246;9.648;2024-02-04T03:38:56;0.20;99.90
15386;DHT22;7791;47.246;9.648;2024-02-04T03:41:49;0.20;99.90
15386;DHT22;7791;47.246;9.648;2024-02-04T03:44:25;0.20;99.90
15386;DHT22;7791;47.246;9.648;2024-02-04T03:47:27;0.20;99.90
15386;DHT22;7791;47.246;9.648;2024-02-04T03:50:09;0.20;99.90
15386;DHT22;7791;47.246;9.648;2024-02-04T03:52:54;0.20;99.90
15386;DHT22;7791;47.246;9.648;2024-02-04T03:55:30;0.00;99.90
15386;DHT22;7791;47.246;9.648;2024-02-04T03:58:05;0.00;99.90
15386;DHT22;7791;47.246;9.648;2024-02-04T04:00:36;0.10;99.90
15386;DHT22;7791;47.246;9.648;2024-02-04T04:03:16;0.20;99.90
15386;DHT22;7791;47.246;9.648;2024-02-04T04:05:50;0.20;99.90
15386;DHT22;7791;47.246;9.648;2024-02-04T04:08:28;0.20;99.90
15386;DHT22;7791;47.246;9.648;2024-02-04T04:11:08;0.20;99.90
15386;DHT22;7791;47.246;9.648;2024-02-04T04:13:57;0.20;99.90
15386;DHT22;7791;47.246;9.648;2024-02-04T04:16:35;0.10;99.90
15386;DHT22;7791;47.246;9.648;2024-02-04T04:19:14;0.00;99.90
15386;DHT22;7791;47.246;9.648;2024-02-04T04:21:59;0.00;99.90
15386;DHT22;7791;47.246;9.648;2024-02-04T04:24:41;0.00;99.90
15386;DHT22;7791;47.246;9.648;2024-02-04T04:27:17;0.00;99.90
15386;DHT22;7791;47.246;9.648;2024-02-04T04:29:52;0.00;99.90
15386;DHT22;7791;47.246;9.648;2024-02-04T04:32:37;0.00;99.90
15386;DHT22;7791;47.246;9.648;2024-02-04T04:35:19;0.10;99.90
15386;DHT22;7791;47.246;9.648;2024-02-04T04:38:12;0.00;99.90
15386;DHT22;7791;47.246;9.648;2024-02-04T04:40:53;0.00;99.90
15386;DHT22;7791;47.246;9.648;2024-02-04T04:43:28;0.10;99.90
15386;DHT22;7791;47.246;9.648;2024-02-04T04:46:14;0.10;99.90
15386;DHT22;7791;47.246;9.648;2024-02-04T04:48:46;0.10;99.90
15386;DHT22;7791;47.246;9.648;2024-02-04T04:51:33;0.10;99.90
15386;DHT22;7791;47.246;9.648;2024-02-04T04:54:24;0.00;99.90
15386;DHT22;7791;47.246;9.648;2024-02-04T04:57:00;0.00;99.90
15386;DHT22;7791;47.246;9.648;2024-02-04T04:59:48;-0.10;99.90
15386;DHT22;7791;47.246;9.648;2024-02-04T05:02:51;-0.10;99.90
15386;DHT22;7791;47.246;9.648;2024-02-04T05:05:24;0.00;99.90
15386;DHT22;7791;47.246;9.648;2024-02-04T05:08:00;0.00;99.90
15386;DHT22;7791;47.246;9.648;2024-02-04T05:22:11;-0.40;99.90
15386;DHT22;7791;47.246;9.648;2024-02-04T05:25:03;-0.30;99.90
15386;DHT22;7791;47.246;9.648;2024-02-04T05:27:41;-0.20;99.90
15386;DHT22;7791;47.246;9.648;2024-02-04T05:30:21;-0.20;99.90
15386;DHT22;7791;47.246;9.648;2024-02-04T05:32:57;-0.10;99.90
15386;DHT22;7791;47.246;9.648;2024-02-04T05:35:36;-0.10;99.90
15386;DHT22;7791;47.246;9.648;2024-02-04T05:41:09;-0.10;99.90
15386;DHT22;7791;47.246;9.648;2024-02-04T05:43:47;0.00;99.90
15386;DHT22;7791;47.246;9.648;2024-02-04T05:46:20;0.10;99.90
15386;DHT22;7791;47.246;9.648;2024-02-04T05:48:56;0.10;99.90
15386;DHT22;7791;47.246;9.648;2024-02-04T05:51:42;0.20;99.90
15386;DHT22;7791;47.246;9.648;2024-02-04T05:54:38;0.20;99.90
15386;DHT22;7791;47.246;9.648;2024-02-04T05:57:25;0.10;99.90
15386;DHT22;7791;47.246;9.648;2024-02-04T06:00:01;0.10;99.90
15386;DHT22;7791;47.246;9.648;2024-02-04T06:02:45;0.10;99.90
15386;DHT22;7791;47.246;9.648;2024-02-04T06:05:37;0.10;99.90
15386;DHT22;7791;47.246;9.648;2024-02-04T06:08:15;0.20;99.90
15386;DHT22;7791;47.246;9.648;2024-02-04T06:11:00;0.20;99.90
15386;DHT22;7791;47.246;9.648;2024-02-04T06:13:40;0.20;99.90
15386;DHT22;7791;47.246;9.648;2024-02-04T06:16:22;0.00;99.90
15386;DHT22;7791;47.246;9.648;2024-02-04T06:22:13;0.00;99.90
15386;DHT22;7791;47.246;9.648;2024-02-04T06:24:54;0.00;99.90
15386;DHT22;7791;47.246;9.648;2024-02-04T06:27:37;0.00;99.90
15386;DHT22;7791;47.246;9.648;2024-02-04T06:30:24;-0.10;99.90
15386;DHT22;7791;47.246;9.648;2024-02-04T06:33:10;-0.30;99.90
15386;DHT22;7791;47.246;9.648;2024-02-04T06:35:42;-0.30;99.90
15386;DHT22;7791;47.246;9.648;2024-02-04T06:38:31;-0.30;99.90
15386;DHT22;7791;47.246;9.648;2024-02-04T06:41:13;-0.20;99.90
15386;DHT22;7791;47.246;9.648;2024-02-04T06:43:45;-0.20;99.90
15386;DHT22;7791;47.246;9.648;2024-02-04T06:46:28;-0.30;99.90
15386;DHT22;7791;47.246;9.648;2024-02-04T06:49:02;-0.40;99.90
15386;DHT22;7791;47.246;9.648;2024-02-04T06:51:42;-0.40;99.90
15386;DHT22;7791;47.246;9.648;2024-02-04T06:54:29;-0.40;99.90
15386;DHT22;7791;47.246;9.648;2024-02-04T06:57:06;-0.30;99.90
15386;DHT22;7791;47.246;9.648;2024-02-04T06:59:42;-0.30;99.90
15386;DHT22;7791;47.246;9.648;2024-02-04T07:02:23;-0.20;99.90
15386;DHT22;7791;47.246;9.648;2024-02-04T07:08:10;0.00;99.90
15386;DHT22;7791;47.246;9.648;2024-02-04T07:10:52;0.00;99.90
15386;DHT22;7791;47.246;9.648;2024-02-04T07:14:06;0.00;99.90
15386;DHT22;7791;47.246;9.648;2024-02-04T07:19:27;0.20;99.90
15386;DHT22;7791;47.246;9.648;2024-02-04T07:22:05;0.30;99.90
15386;DHT22;7791;47.246;9.648;2024-02-04T07:24:41;0.40;99.90
15386;DHT22;7791;47.246;9.648;2024-02-04T07:27:17;0.50;99.90
15386;DHT22;7791;47.246;9.648;2024-02-04T07:29:50;0.60;99.90
15386;DHT22;7791;47.246;9.648;2024-02-04T07:32:27;0.40;99.90
15386;DHT22;7791;47.246;9.648;2024-02-04T07:35:13;0.30;99.90
15386;DHT22;7791;47.246;9.648;2024-02-04T07:40:40;0.20;99.90
15386;DHT22;7791;47.246;9.648;2024-02-04T07:43:27;0.30;99.90
15386;DHT22;7791;47.246;9.648;2024-02-04T07:46:13;0.40;99.90
15386;DHT22;7791;47.246;9.648;2024-02-04T07:48:56;0.70;99.90
15386;DHT22;7791;47.246;9.648;2024-02-04T07:51:44;0.80;99.90
15386;DHT22;7791;47.246;9.648;2024-02-04T07:54:27;0.90;99.90
15386;DHT22;7791;47.246;9.648;2024-02-04T07:57:04;0.80;99.90
15386;DHT22;7791;47.246;9.648;2024-02-04T07:59:51;1.50;99.90
15386;DHT22;7791;47.246;9.648;2024-02-04T08:02:30;2.30;99.90
15386;DHT22;7791;47.246;9.648;2024-02-04T08:05:16;3.50;99.90
15386;DHT22;7791;47.246;9.648;2024-02-04T08:08:04;4.50;99.90
15386;DHT22;7791;47.246;9.648;2024-02-04T08:10:39;4.60;99.90
15386;DHT22;7791;47.246;9.648;2024-02-04T08:13:22;4.90;99.90
15386;DHT22;7791;47.246;9.648;2024-02-04T08:15:58;5.50;99.90
15386;DHT22;7791;47.246;9.648;2024-02-04T08:21:35;6.50;99.90
15386;DHT22;7791;47.246;9.648;2024-02-04T08:24:30;7.70;99.90
15386;DHT22;7791;47.246;9.648;2024-02-04T08:27:24;8.40;99.90
15386;DHT22;7791;47.246;9.648;2024-02-04T08:35:40;8.70;99.90
15386;DHT22;7791;47.246;9.648;2024-02-04T08:38:18;8.90;99.90
15386;DHT22;7791;47.246;9.648;2024-02-04T08:43:53;8.20;99.90
15386;DHT22;7791;47.246;9.648;2024-02-04T08:46:39;8.20;99.90
15386;DHT22;7791;47.246;9.648;2024-02-04T08:49:14;9.50;99.90
15386;DHT22;7791;47.246;9.648;2024-02-04T08:52:00;9.70;99.90
15386;DHT22;7791;47.246;9.648;2024-02-04T08:54:38;11.10;99.90
15386;DHT22;7791;47.246;9.648;2024-02-04T08:57:21;11.30;99.90
15386;DHT22;7791;47.246;9.648;2024-02-04T08:59:57;11.90;99.90
15386;DHT22;7791;47.246;9.648;2024-02-04T09:02:50;12.20;99.90
15386;DHT22;7791;47.246;9.648;2024-02-04T09:05:34;12.90;99.90
15386;DHT22;7791;47.246;9.648;2024-02-04T09:08:28;13.20;99.90
15386;DHT22;7791;47.246;9.648;2024-02-04T09:11:05;13.70;99.90
15386;DHT22;7791;47.246;9.648;2024-02-04T09:13:44;14.30;99.90
15386;DHT22;7791;47.246;9.648;2024-02-04T09:16:22;14.90;99.90
15386;DHT22;7791;47.246;9.648;2024-02-04T09:18:57;15.60;99.90
15386;DHT22;7791;47.246;9.648;2024-02-04T09:21:45;15.80;99.90
15386;DHT22;7791;47.246;9.648;2024-02-04T09:24:46;16.30;99.90
15386;DHT22;7791;47.246;9.648;2024-02-04T09:30:29;14.70;99.90
15386;DHT22;7791;47.246;9.648;2024-02-04T09:33:01;14.50;99.90
15386;DHT22;7791;47.246;9.648;2024-02-04T09:35:38;15.30;99.90
15386;DHT22;7791;47.246;9.648;2024-02-04T09:38:21;16.40;99.90
15386;DHT22;7791;47.246;9.648;2024-02-04T09:40:56;16.80;99.90
15386;DHT22;7791;47.246;9.648;2024-02-04T09:43:41;17.10;99.90
15386;DHT22;7791;47.246;9.648;2024-02-04T09:46:28;17.00;99.90
15386;DHT22;7791;47.246;9.648;2024-02-04T09:49:07;16.80;99.90
15386;DHT22;7791;47.246;9.648;2024-02-04T09:51:47;17.40;99.90
15386;DHT22;7791;47.246;9.648;2024-02-04T09:57:17;18.00;99.50
15386;DHT22;7791;47.246;9.648;2024-02-04T09:59:44;17.60;98.50
15386;DHT22;7791;47.246;9.648;2024-02-04T10:05:15;17.50;99.30
15386;DHT22;7791;47.246;9.648;2024-02-04T10:07:55;17.80;99.20
15386;DHT22;7791;47.246;9.648;2024-02-04T10:10:38;18.10;98.00
15386;DHT22;7791;47.246;9.648;2024-02-04T10:13:15;18.20;97.80
15386;DHT22;7791;47.246;9.648;2024-02-04T10:16:14;18.20;96.90
15386;DHT22;7791;47.246;9.648;2024-02-04T10:18:46;18.40;97.60
15386;DHT22;7791;47.246;9.648;2024-02-04T10:24:24;16.90;96.80
15386;DHT22;7791;47.246;9.648;2024-02-04T10:27:06;13.80;99.90
15386;DHT22;7791;47.246;9.648;2024-02-04T10:29:57;12.40;99.90
15386;DHT22;7791;47.246;9.648;2024-02-04T10:32:36;11.70;99.90
15386;DHT22;7791;47.246;9.648;2024-02-04T10:35:17;11.10;99.90
15386;DHT22;7791;47.246;9.648;2024-02-04T10:38:11;10.60;99.90
15386;DHT22;7791;47.246;9.648;2024-02-04T10:43:53;9.60;99.90
15386;DHT22;7791;47.246;9.648;2024-02-04T10:46:45;9.80;99.90
15386;DHT22;7791;47.246;9.648;2024-02-04T10:52:08;10.20;99.90
15386;DHT22;7791;47.246;9.648;2024-02-04T10:57:39;10.10;99.90
15386;DHT22;7791;47.246;9.648;2024-02-04T11:00:30;10.20;99.90
15386;DHT22;7791;47.246;9.648;2024-02-04T11:03:07;10.60;99.90
15386;DHT22;7791;47.246;9.648;2024-02-04T11:05:44;10.30;99.90
15386;DHT22;7791;47.246;9.648;2024-02-04T11:08:26;10.40;99.90
15386;DHT22;7791;47.246;9.648;2024-02-04T11:11:11;10.30;99.90
15386;DHT22;7791;47.246;9.648;2024-02-04T11:13:45;10.60;99.90
15386;DHT22;7791;47.246;9.648;2024-02-04T11:16:40;10.60;99.90
15386;DHT22;7791;47.246;9.648;2024-02-04T11:19:31;11.00;99.90
15386;DHT22;7791;47.246;9.648;2024-02-04T11:25:28;11.90;99.90
15386;DHT22;7791;47.246;9.648;2024-02-04T11:28:13;11.80;99.90
15386;DHT22;7791;47.246;9.648;2024-02-04T11:30:58;11.60;99.90
15386;DHT22;7791;47.246;9.648;2024-02-04T11:33:55;11.10;99.90
15386;DHT22;7791;47.246;9.648;2024-02-04T11:39:37;11.30;99.90
15386;DHT22;7791;47.246;9.648;2024-02-04T11:42:26;11.60;99.90
15386;DHT22;7791;47.246;9.648;2024-02-04T11:45:22;11.20;99.90
15386;DHT22;7791;47.246;9.648;2024-02-04T11:48:03;11.10;99.90
15386;DHT22;7791;47.246;9.648;2024-02-04T11:50:51;11.60;99.90
15386;DHT22;7791;47.246;9.648;2024-02-04T11:53:25;12.30;99.90
15386;DHT22;7791;47.246;9.648;2024-02-04T11:56:28;12.70;99.90
15386;DHT22;7791;47.246;9.648;2024-02-04T11:59:07;12.30;99.90
15386;DHT22;7791;47.246;9.648;2024-02-04T12:02:04;12.40;99.90
15386;DHT22;7791;47.246;9.648;2024-02-04T12:04:37;12.40;99.90
15386;DHT22;7791;47.246;9.648;2024-02-04T12:07:27;12.10;99.90
15386;DHT22;7791;47.246;9.648;2024-02-04T12:10:07;12.20;99.90
15386;DHT22;7791;47.246;9.648;2024-02-04T12:12:49;12.40;99.90
15386;DHT22;7791;47.246;9.648;2024-02-04T12:15:38;12.20;99.90
15386;DHT22;7791;47.246;9.648;2024-02-04T12:21:29;13.00;99.90
15386;DHT22;7791;47.246;9.648;2024-02-04T12:27:02;12.90;99.90
15386;DHT22;7791;47.246;9.648;2024-02-04T12:29:34;12.70;99.90
15386;DHT22;7791;47.246;9.648;2024-02-04T12:35:01;13.20;99.90
15386;DHT22;7791;47.246;9.648;2024-02-04T12:37:56;14.10;99.90
15386;DHT22;7791;47.246;9.648;2024-02-04T12:40:32;14.60;99.90
15386;DHT22;7791;47.246;9.648;2024-02-04T12:43:15;15.50;99.90
15386;DHT22;7791;47.246;9.648;2024-02-04T12:45:55;15.70;99.20
15386;DHT22;7791;47.246;9.648;2024-02-04T12:48:28;15.40;99.90
15386;DHT22;7791;47.246;9.648;2024-02-04T12:57:08;13.80;99.90
15386;DHT22;7791;47.246;9.648;2024-02-04T13:00:03;13.20;99.90
15386;DHT22;7791;47.246;9.648;2024-02-04T13:02:39;12.90;99.90
15386;DHT22;7791;47.246;9.648;2024-02-04T13:05:31;12.80;99.90
15386;DHT22;7791;47.246;9.648;2024-02-04T13:08:14;12.20;99.90
15386;DHT22;7791;47.246;9.648;2024-02-04T13:11:15;12.00;99.90
15386;DHT22;7791;47.246;9.648;2024-02-04T13:14:17;12.10;99.90
15386;DHT22;7791;47.246;9.648;2024-02-04T13:17:02;12.30;99.90
15386;DHT22;7791;47.246;9.648;2024-02-04T13:19:53;12.30;99.90
15386;DHT22;7791;47.246;9.648;2024-02-04T13:22:38;12.10;99.90
15386;DHT22;7791;47.246;9.648;2024-02-04T13:25:11;12.30;99.90
15386;DHT22;7791;47.246;9.648;2024-02-04T13:27:58;13.40;99.90
15386;DHT22;7791;47.246;9.648;2024-02-04T13:30:30;14.40;99.90
15386;DHT22;7791;47.246;9.648;2024-02-04T13:33:06;14.70;99.90
15386;DHT22;7791;47.246;9.648;2024-02-04T13:39:02;16.80;98.80
15386;DHT22;7791;47.246;9.648;2024-02-04T13:41:44;16.10;98.40
15386;DHT22;7791;47.246;9.648;2024-02-04T13:44:39;16.50;98.80
15386;DHT22;7791;47.246;9.648;2024-02-04T13:47:18;16.30;97.50
15386;DHT22;7791;47.246;9.648;2024-02-04T13:50:01;16.10;98.60
15386;DHT22;7791;47.246;9.648;2024-02-04T13:52:42;15.90;98.40
15386;DHT22;7791;47.246;9.648;2024-02-04T13:55:23;15.20;99.90
15386;DHT22;7791;47.246;9.648;2024-02-04T13:58:03;15.10;99.90
15386;DHT22;7791;47.246;9.648;2024-02-04T14:00:38;14.50;99.90
15386;DHT22;7791;47.246;9.648;2024-02-04T14:03:13;13.90;99.90
15386;DHT22;7791;47.246;9.648;2024-02-04T14:05:48;13.60;99.90
15386;DHT22;7791;47.246;9.648;2024-02-04T14:11:12;13.10;99.90
15386;DHT22;7791;47.246;9.648;2024-02-04T14:13:48;12.40;99.90
15386;DHT22;7791;47.246;9.648;2024-02-04T14:16:24;12.10;99.90
15386;DHT22;7791;47.246;9.648;2024-02-04T14:19:05;11.90;99.90
15386;DHT22;7791;47.246;9.648;2024-02-04T14:21:54;12.50;99.90
15386;DHT22;7791;47.246;9.648;2024-02-04T14:24:29;12.90;99.90
15386;DHT22;7791;47.246;9.648;2024-02-04T14:27:01;13.00;99.90
15386;DHT22;7791;47.246;9.648;2024-02-04T14:29:33;13.10;99.90
15386;DHT22;7791;47.246;9.648;2024-02-04T14:32:34;13.00;99.90
15386;DHT22;7791;47.246;9.648;2024-02-04T14:35:04;13.10;99.90
15386;DHT22;7791;47.246;9.648;2024-02-04T14:37:43;13.40;99.90
15386;DHT22;7791;47.246;9.648;2024-02-04T14:40:22;13.60;99.90
15386;DHT22;7791;47.246;9.648;2024-02-04T14:43:08;13.70;99.90
15386;DHT22;7791;47.246;9.648;2024-02-04T14:45:43;14.00;99.90
15386;DHT22;7791;47.246;9.648;2024-02-04T14:48:44;14.00;99.90
15386;DHT22;7791;47.246;9.648;2024-02-04T14:51:41;13.60;99.90
15386;DHT22;7791;47.246;9.648;2024-02-04T14:54:13;13.30;99.90
15386;DHT22;7791;47.246;9.648;2024-02-04T14:56:53;12.80;99.90
15386;DHT22;7791;47.246;9.648;2024-02-04T14:59:32;12.70;99.90
15386;DHT22;7791;47.246;9.648;2024-02-04T15:02:08;12.40;99.90
15386;DHT22;7791;47.246;9.648;2024-02-04T15:08:12;11.80;99.90
15386;DHT22;7791;47.246;9.648;2024-02-04T15:11:05;11.70;99.90
15386;DHT22;7791;47.246;9.648;2024-02-04T15:13:44;11.50;99.90
15386;DHT22;7791;47.246;9.648;2024-02-04T15:16:27;11.60;99.90
15386;DHT22;7791;47.246;9.648;2024-02-04T15:19:09;11.50;99.90
15386;DHT22;7791;47.246;9.648;2024-02-04T15:27:46;11.10;99.90
15386;DHT22;7791;47.246;9.648;2024-02-04T15:36:22;10.70;99.90
15386;DHT22;7791;47.246;9.648;2024-02-04T15:38:55;10.60;99.90
15386;DHT22;7791;47.246;9.648;2024-02-04T15:41:40;10.50;99.90
15386;DHT22;7791;47.246;9.648;2024-02-04T15:44:12;10.40;99.90
15386;DHT22;7791;47.246;9.648;2024-02-04T15:46:47;10.40;99.90
15386;DHT22;7791;47.246;9.648;2024-02-04T15:49:34;10.30;99.90
15386;DHT22;7791;47.246;9.648;2024-02-04T15:52:30;10.20;99.90
15386;DHT22;7791;47.246;9.648;2024-02-04T15:55:06;10.20;99.90
15386;DHT22;7791;47.246;9.648;2024-02-04T15:57:59;10.10;99.90
15386;DHT22;7791;47.246;9.648;2024-02-04T16:00:38;10.00;99.90
15386;DHT22;7791;47.246;9.648;2024-02-04T16:03:13;9.90;99.90
15386;DHT22;7791;47.246;9.648;2024-02-04T16:05:56;9.50;99.90
15386;DHT22;7791;47.246;9.648;2024-02-04T16:08:35;9.40;99.90
15386;DHT22;7791;47.246;9.648;2024-02-04T16:11:20;9.30;99.90
15386;DHT22;7791;47.246;9.648;2024-02-04T16:13:53;9.20;99.90
15386;DHT22;7791;47.246;9.648;2024-02-04T16:16:57;9.10;99.90
15386;DHT22;7791;47.246;9.648;2024-02-04T16:19:36;8.90;99.90
15386;DHT22;7791;47.246;9.648;2024-02-04T16:22:18;8.70;99.90
15386;DHT22;7791;47.246;9.648;2024-02-04T16:24:53;8.50;99.90
15386;DHT22;7791;47.246;9.648;2024-02-04T16:27:34;8.40;99.90
15386;DHT22;7791;47.246;9.648;2024-02-04T16:33:13;8.40;99.90
15386;DHT22;7791;47.246;9.648;2024-02-04T16:35:45;8.20;99.90
15386;DHT22;7791;47.246;9.648;2024-02-04T16:38:24;8.10;99.90
15386;DHT22;7791;47.246;9.648;2024-02-04T16:41:05;7.90;99.90
15386;DHT22;7791;47.246;9.648;2024-02-04T16:43:55;7.80;99.90
15386;DHT22;7791;47.246;9.648;2024-02-04T16:46:28;7.60;99.90
15386;DHT22;7791;47.246;9.648;2024-02-04T16:49:21;7.50;99.90
15386;DHT22;7791;47.246;9.648;2024-02-04T16:58:04;7.40;99.90
15386;DHT22;7791;47.246;9.648;2024-02-04T17:03:27;7.40;99.90
15386;DHT22;7791;47.246;9.648;2024-02-04T17:08:58;7.30;99.90
15386;DHT22;7791;47.246;9.648;2024-02-04T17:14:17;7.20;99.90
15386;DHT22;7791;47.246;9.648;2024-02-04T17:16:58;7.20;99.90
15386;DHT22;7791;47.246;9.648;2024-02-04T17:22:31;7.20;99.90
15386;DHT22;7791;47.246;9.648;2024-02-04T17:25:18;7.10;99.90
15386;DHT22;7791;47.246;9.648;2024-02-04T17:28:01;7.00;99.90
15386;DHT22;7791;47.246;9.648;2024-02-04T17:30:35;6.90;99.90
15386;DHT22;7791;47.246;9.648;2024-02-04T17:36:04;6.80;99.90
15386;DHT22;7791;47.246;9.648;2024-02-04T17:38:46;6.70;99.90
15386;DHT22;7791;47.246;9.648;2024-02-04T17:41:34;6.70;99.90
15386;DHT22;7791;47.246;9.648;2024-02-04T17:44:21;6.70;99.90
15386;DHT22;7791;47.246;9.648;2024-02-04T17:49:48;6.80;99.90
15386;DHT22;7791;47.246;9.648;2024-02-04T17:52:32;6.70;99.90
15386;DHT22;7791;47.246;9.648;2024-02-04T17:55:16;6.60;99.90
15386;DHT22;7791;47.246;9.648;2024-02-04T17:58:05;6.50;99.90
15386;DHT22;7791;47.246;9.648;2024-02-04T18:00:48;6.60;99.90
15386;DHT22;7791;47.246;9.648;2024-02-04T18:03:20;6.60;99.90
15386;DHT22;7791;47.246;9.648;2024-02-04T18:15:20;6.30;99.90
15386;DHT22;7791;47.246;9.648;2024-02-04T18:18:10;6.20;99.90
15386;DHT22;7791;47.246;9.648;2024-02-04T18:20:50;6.20;99.90
15386;DHT22;7791;47.246;9.648;2024-02-04T18:29:19;5.90;99.90
15386;DHT22;7791;47.246;9.648;2024-02-04T18:32:10;5.90;99.90
15386;DHT22;7791;47.246;9.648;2024-02-04T18:34:49;5.80;99.90
15386;DHT22;7791;47.246;9.648;2024-02-04T18:37:30;5.50;99.90
15386;DHT22;7791;47.246;9.648;2024-02-04T18:40:09;5.40;99.90
15386;DHT22;7791;47.246;9.648;2024-02-04T18:45:30;5.20;99.90
15386;DHT22;7791;47.246;9.648;2024-02-04T18:48:23;5.20;99.90
15386;DHT22;7791;47.246;9.648;2024-02-04T18:51:03;5.10;99.90
15386;DHT22;7791;47.246;9.648;2024-02-04T18:53:39;4.90;99.90
15386;DHT22;7791;47.246;9.648;2024-02-04T18:56:28;4.80;99.90
15386;DHT22;7791;47.246;9.648;2024-02-04T19:00:43;4.70;99.90
15386;DHT22;7791;47.246;9.648;2024-02-04T19:02:05;4.50;99.90
15386;DHT22;7791;47.246;9.648;2024-02-04T19:04:46;4.60;99.90
15386;DHT22;7791;47.246;9.648;2024-02-04T19:07:25;4.60;99.90
15386;DHT22;7791;47.246;9.648;2024-02-04T19:10:06;4.50;99.90
15386;DHT22;7791;47.246;9.648;2024-02-04T19:12:44;4.40;99.90
15386;DHT22;7791;47.246;9.648;2024-02-04T19:15:25;4.30;99.90
15386;DHT22;7791;47.246;9.648;2024-02-04T19:18:04;4.10;99.90
15386;DHT22;7791;47.246;9.648;2024-02-04T19:23:48;4.00;99.90
15386;DHT22;7791;47.246;9.648;2024-02-04T19:26:17;4.00;99.90
15386;DHT22;7791;47.246;9.648;2024-02-04T19:28:49;4.00;99.90
15386;DHT22;7791;47.246;9.648;2024-02-04T19:31:45;4.00;99.90
15386;DHT22;7791;47.246;9.648;2024-02-04T19:34:24;4.00;99.90
15386;DHT22;7791;47.246;9.648;2024-02-04T19:36:59;4.00;99.90
15386;DHT22;7791;47.246;9.648;2024-02-04T19:39:36;3.90;99.90
15386;DHT22;7791;47.246;9.648;2024-02-04T19:42:09;3.90;99.90
15386;DHT22;7791;47.246;9.648;2024-02-04T19:44:41;3.80;99.90
15386;DHT22;7791;47.246;9.648;2024-02-04T19:50:11;3.60;99.90
15386;DHT22;7791;47.246;9.648;2024-02-04T19:52:50;3.60;99.90
15386;DHT22;7791;47.246;9.648;2024-02-04T19:55:32;3.60;99.90
15386;DHT22;7791;47.246;9.648;2024-02-04T20:00:52;3.50;99.90
15386;DHT22;7791;47.246;9.648;2024-02-04T20:03:24;3.50;99.90
15386;DHT22;7791;47.246;9.648;2024-02-04T20:06:00;3.40;99.90
15386;DHT22;7791;47.246;9.648;2024-02-04T20:08:45;3.50;99.90
15386;DHT22;7791;47.246;9.648;2024-02-04T20:14:13;3.50;99.90
15386;DHT22;7791;47.246;9.648;2024-02-04T20:19:47;3.30;99.90
15386;DHT22;7791;47.246;9.648;2024-02-04T20:22:19;3.10;99.90
15386;DHT22;7791;47.246;9.648;2024-02-04T20:24:56;3.00;99.90
15386;DHT22;7791;47.246;9.648;2024-02-04T20:27:31;3.00;99.90
15386;DHT22;7791;47.246;9.648;2024-02-04T20:33:18;3.10;99.90
15386;DHT22;7791;47.246;9.648;2024-02-04T20:39:03;3.00;99.90
15386;DHT22;7791;47.246;9.648;2024-02-04T20:41:57;3.00;99.90
15386;DHT22;7791;47.246;9.648;2024-02-04T20:44:43;2.80;99.90
15386;DHT22;7791;47.246;9.648;2024-02-04T20:50:14;2.90;99.90
15386;DHT22;7791;47.246;9.648;2024-02-04T20:53:01;2.90;99.90
15386;DHT22;7791;47.246;9.648;2024-02-04T20:55:45;2.80;99.90
15386;DHT22;7791;47.246;9.648;2024-02-04T20:58:20;2.70;99.90